sensor_id;sensor_type;location;lat;lon;timestamp;temperature;humidity
23137;DHT22;11737;50.558;7.258;2022-08-19T00:01:57;19.60;99.10
23137;DHT22;11737;50.558;7.258;2022-08-19T00:04:28;19.40;98.80
23137;DHT22;11737;50.558;7.258;2022-08-19T00:06:56;19.40;99.60
23137;DHT22;11737;50.558;7.258;2022-08-19T00:09:25;19.30;99.80
23137;DHT22;11737;50.558;7.258;2022-08-19T00:11:54;19.30;99.90
23137;DHT22;11737;50.558;7.258;2022-08-19T00:14:22;19.20;99.90
23137;DHT22;11737;50.558;7.258;2022-08-19T00:16:50;19.20;99.90
23137;DHT22;11737;50.558;7.258;2022-08-19T00:19:21;19.20;99.90
23137;DHT22;11737;50.558;7.258;2022-08-19T00:21:49;19.20;99.90
23137;DHT22;11737;50.558;7.258;2022-08-19T00:24:16;19.20;99.90
23137;DHT22;11737;50.558;7.258;2022-08-19T00:26:44;19.20;99.90
23137;DHT22;11737;50.558;7.258;2022-08-19T00:29:15;19.30;99.90
23137;DHT22;11737;50.558;7.258;2022-08-19T00:31:44;19.20;99.90
23137;DHT22;11737;50.558;7.258;2022-08-19T00:34:13;19.20;99.90
23137;DHT22;11737;50.558;7.258;2022-08-19T00:36:42;19.20;99.90
23137;DHT22;11737;50.558;7.258;2022-08-19T00:39:10;19.10;99.90
23137;DHT22;11737;50.558;7.258;2022-08-19T00:41:39;19.00;99.90
23137;DHT22;11737;50.558;7.258;2022-08-19T00:44:14;19.00;99.90
23137;DHT22;11737;50.558;7.258;2022-08-19T00:46:43;19.00;99.90
23137;DHT22;11737;50.558;7.258;2022-08-19T00:49:20;19.00;99.90
23137;DHT22;11737;50.558;7.258;2022-08-19T00:51:50;18.90;99.90
23137;DHT22;11737;50.558;7.258;2022-08-19T00:54:19;18.90;99.90
23137;DHT22;11737;50.558;7.258;2022-08-19T00:56:48;18.90;99.90
23137;DHT22;11737;50.558;7.258;2022-08-19T00:59:18;19.00;99.90
23137;DHT22;11737;50.558;7.258;2022-08-19T01:01:46;19.10;99.90
23137;DHT22;11737;50.558;7.258;2022-08-19T01:04:14;19.10;99.90
23137;DHT22;11737;50.558;7.258;2022-08-19T01:06:41;19.10;99.90
23137;DHT22;11737;50.558;7.258;2022-08-19T01:09:09;19.10;99.90
23137;DHT22;11737;50.558;7.258;2022-08-19T01:11:39;19.00;99.90
23137;DHT22;11737;50.558;7.258;2022-08-19T01:14:08;18.90;99.90
23137;DHT22;11737;50.558;7.258;2022-08-19T01:16:37;18.90;99.90
23137;DHT22;11737;50.558;7.258;2022-08-19T01:19:13;18.90;99.90
23137;DHT22;11737;50.558;7.258;2022-08-19T01:21:42;18.90;99.90
23137;DHT22;11737;50.558;7.258;2022-08-19T01:24:10;18.80;99.90
23137;DHT22;11737;50.558;7.258;2022-08-19T01:26:40;18.80;99.90
23137;DHT22;11737;50.558;7.258;2022-08-19T01:29:10;18.80;99.90
23137;DHT22;11737;50.558;7.258;2022-08-19T01:31:38;18.70;99.90
23137;DHT22;11737;50.558;7.258;2022-08-19T01:34:06;18.70;99.90
23137;DHT22;11737;50.558;7.258;2022-08-19T01:39:10;18.70;99.90
23137;DHT22;11737;50.558;7.258;2022-08-19T01:41:39;18.70;99.90
23137;DHT22;11737;50.558;7.258;2022-08-19T01:44:09;18.60;99.90
23137;DHT22;11737;50.558;7.258;2022-08-19T01:46:37;18.70;99.90
23137;DHT22;11737;50.558;7.258;2022-08-19T01:49:07;18.70;99.90
23137;DHT22;11737;50.558;7.258;2022-08-19T01:51:34;18.80;99.90
23137;DHT22;11737;50.558;7.258;2022-08-19T01:54:02;18.80;99.90
23137;DHT22;11737;50.558;7.258;2022-08-19T01:56:30;18.80;99.90
23137;DHT22;11737;50.558;7.258;2022-08-19T01:59:03;18.90;99.90
23137;DHT22;11737;50.558;7.258;2022-08-19T02:01:31;18.90;99.90
23137;DHT22;11737;50.558;7.258;2022-08-19T02:03:59;18.80;99.90
23137;DHT22;11737;50.558;7.258;2022-08-19T02:06:29;18.70;99.90
23137;DHT22;11737;50.558;7.258;2022-08-19T02:08:57;18.60;99.90
23137;DHT22;11737;50.558;7.258;2022-08-19T02:11:27;18.60;99.90
23137;DHT22;11737;50.558;7.258;2022-08-19T02:13:58;18.50;99.90
23137;DHT22;11737;50.558;7.258;2022-08-19T02:16:26;18.40;99.90
23137;DHT22;11737;50.558;7.258;2022-08-19T02:18:54;18.40;99.90
23137;DHT22;11737;50.558;7.258;2022-08-19T02:21:23;18.40;99.90
23137;DHT22;11737;50.558;7.258;2022-08-19T02:23:51;18.40;99.90
23137;DHT22;11737;50.558;7.258;2022-08-19T02:26:18;18.40;99.90
23137;DHT22;11737;50.558;7.258;2022-08-19T02:28:46;18.30;99.90
23137;DHT22;11737;50.558;7.258;2022-08-19T02:31:17;18.30;99.90
23137;DHT22;11737;50.558;7.258;2022-08-19T02:33:46;18.30;99.90
23137;DHT22;11737;50.558;7.258;2022-08-19T02:36:16;18.30;99.90
23137;DHT22;11737;50.558;7.258;2022-08-19T02:38:45;18.30;99.90
23137;DHT22;11737;50.558;7.258;2022-08-19T02:41:18;18.40;99.90
23137;DHT22;11737;50.558;7.258;2022-08-19T02:43:46;18.50;99.90
23137;DHT22;11737;50.558;7.258;2022-08-19T02:46:17;18.50;99.90
23137;DHT22;11737;50.558;7.258;2022-08-19T02:48:52;18.50;99.90
23137;DHT22;11737;50.558;7.258;2022-08-19T02:51:27;18.60;99.90
23137;DHT22;11737;50.558;7.258;2022-08-19T02:53:56;18.60;99.90
23137;DHT22;11737;50.558;7.258;2022-08-19T02:56:25;18.60;99.90
23137;DHT22;11737;50.558;7.258;2022-08-19T02:58:55;18.50;99.90
23137;DHT22;11737;50.558;7.258;2022-08-19T03:01:25;18.40;99.90
23137;DHT22;11737;50.558;7.258;2022-08-19T03:03:54;18.40;99.90
23137;DHT22;11737;50.558;7.258;2022-08-19T03:06:23;18.30;99.90
23137;DHT22;11737;50.558;7.258;2022-08-19T03:08:51;18.40;99.90
23137;DHT22;11737;50.558;7.258;2022-08-19T03:11:31;18.40;99.90
23137;DHT22;11737;50.558;7.258;2022-08-19T03:13:55;18.30;99.90
23137;DHT22;11737;50.558;7.258;2022-08-19T03:16:25;18.30;99.90
23137;DHT22;11737;50.558;7.258;2022-08-19T03:18:55;18.20;99.90
23137;DHT22;11737;50.558;7.258;2022-08-19T03:21:25;18.20;99.90
23137;DHT22;11737;50.558;7.258;2022-08-19T03:23:57;18.20;99.90
23137;DHT22;11737;50.558;7.258;2022-08-19T03:26:25;18.20;99.90
23137;DHT22;11737;50.558;7.258;2022-08-19T03:28:53;18.20;99.90
23137;DHT22;11737;50.558;7.258;2022-08-19T03:31:21;18.30;99.90
23137;DHT22;11737;50.558;7.258;2022-08-19T03:33:50;18.30;99.90
23137;DHT22;11737;50.558;7.258;2022-08-19T03:36:20;18.40;99.90
23137;DHT22;11737;50.558;7.258;2022-08-19T03:38:54;18.40;99.90
23137;DHT22;11737;50.558;7.258;2022-08-19T03:41:25;18.30;99.90
23137;DHT22;11737;50.558;7.258;2022-08-19T03:43:53;18.20;99.90
23137;DHT22;11737;50.558;7.258;2022-08-19T03:46:24;18.10;99.90
23137;DHT22;11737;50.558;7.258;2022-08-19T03:48:54;18.10;99.90
23137;DHT22;11737;50.558;7.258;2022-08-19T03:51:27;18.10;99.90
23137;DHT22;11737;50.558;7.258;2022-08-19T03:53:55;18.00;99.90
23137;DHT22;11737;50.558;7.258;2022-08-19T03:56:24;18.00;99.90
23137;DHT22;11737;50.558;7.258;2022-08-19T03:58:53;18.00;99.90
23137;DHT22;11737;50.558;7.258;2022-08-19T04:01:23;18.00;99.90
23137;DHT22;11737;50.558;7.258;2022-08-19T04:03:50;18.00;99.90
23137;DHT22;11737;50.558;7.258;2022-08-19T04:06:24;18.00;99.90
23137;DHT22;11737;50.558;7.258;2022-08-19T04:08:53;18.00;99.90
23137;DHT22;11737;50.558;7.258;2022-08-19T04:11:26;17.90;99.90
23137;DHT22;11737;50.558;7.258;2022-08-19T04:13:55;17.90;99.90
23137;DHT22;11737;50.558;7.258;2022-08-19T04:16:25;17.80;99.90
23137;DHT22;11737;50.558;7.258;2022-08-19T04:18:56;17.80;99.90
23137;DHT22;11737;50.558;7.258;2022-08-19T04:21:26;17.70;99.90
23137;DHT22;11737;50.558;7.258;2022-08-19T04:23:55;17.70;99.90
23137;DHT22;11737;50.558;7.258;2022-08-19T04:26:30;17.70;99.90
23137;DHT22;11737;50.558;7.258;2022-08-19T04:28:54;17.70;99.90
23137;DHT22;11737;50.558;7.258;2022-08-19T04:31:25;17.60;99.90
23137;DHT22;11737;50.558;7.258;2022-08-19T04:33:58;17.50;99.90
23137;DHT22;11737;50.558;7.258;2022-08-19T04:36:29;17.50;99.90
23137;DHT22;11737;50.558;7.258;2022-08-19T04:39:00;17.50;99.90
23137;DHT22;11737;50.558;7.258;2022-08-19T04:41:28;17.50;99.90
23137;DHT22;11737;50.558;7.258;2022-08-19T04:44:14;17.50;99.90
23137;DHT22;11737;50.558;7.258;2022-08-19T04:46:44;17.50;99.90
23137;DHT22;11737;50.558;7.258;2022-08-19T04:49:12;17.40;99.90
23137;DHT22;11737;50.558;7.258;2022-08-19T04:51:41;17.50;99.90
23137;DHT22;11737;50.558;7.258;2022-08-19T04:54:09;17.60;99.90
23137;DHT22;11737;50.558;7.258;2022-08-19T04:56:38;17.70;99.90
23137;DHT22;11737;50.558;7.258;2022-08-19T04:59:05;17.70;99.90
23137;DHT22;11737;50.558;7.258;2022-08-19T05:01:35;17.80;99.90
23137;DHT22;11737;50.558;7.258;2022-08-19T05:04:04;17.80;99.90
23137;DHT22;11737;50.558;7.258;2022-08-19T05:06:34;17.80;99.90
23137;DHT22;11737;50.558;7.258;2022-08-19T05:09:03;17.80;99.90
23137;DHT22;11737;50.558;7.258;2022-08-19T05:11:33;17.80;99.90
23137;DHT22;11737;50.558;7.258;2022-08-19T05:14:01;17.80;99.90
23137;DHT22;11737;50.558;7.258;2022-08-19T05:16:29;17.90;99.90
23137;DHT22;11737;50.558;7.258;2022-08-19T05:18:57;17.90;99.90
23137;DHT22;11737;50.558;7.258;2022-08-19T05:21:43;18.00;99.90
23137;DHT22;11737;50.558;7.258;2022-08-19T05:24:29;18.10;99.90
23137;DHT22;11737;50.558;7.258;2022-08-19T05:26:57;18.20;99.90
23137;DHT22;11737;50.558;7.258;2022-08-19T05:29:26;18.30;99.90
23137;DHT22;11737;50.558;7.258;2022-08-19T05:31:55;18.40;99.90
23137;DHT22;11737;50.558;7.258;2022-08-19T05:34:24;18.40;99.90
23137;DHT22;11737;50.558;7.258;2022-08-19T05:36:59;18.40;99.90
23137;DHT22;11737;50.558;7.258;2022-08-19T05:39:26;18.50;99.90
23137;DHT22;11737;50.558;7.258;2022-08-19T05:42:08;18.70;99.90
23137;DHT22;11737;50.558;7.258;2022-08-19T05:44:39;18.80;99.90
23137;DHT22;11737;50.558;7.258;2022-08-19T05:47:07;18.90;99.90
23137;DHT22;11737;50.558;7.258;2022-08-19T05:49:36;19.10;99.90
23137;DHT22;11737;50.558;7.258;2022-08-19T05:52:06;19.20;99.90
23137;DHT22;11737;50.558;7.258;2022-08-19T05:54:34;19.30;99.90
23137;DHT22;11737;50.558;7.258;2022-08-19T05:57:02;19.30;99.90
23137;DHT22;11737;50.558;7.258;2022-08-19T05:59:30;19.50;99.90
23137;DHT22;11737;50.558;7.258;2022-08-19T06:01:58;19.60;99.90
23137;DHT22;11737;50.558;7.258;2022-08-19T06:04:26;19.70;99.90
23137;DHT22;11737;50.558;7.258;2022-08-19T06:06:55;19.80;99.90
23137;DHT22;11737;50.558;7.258;2022-08-19T06:09:24;19.90;99.90
23137;DHT22;11737;50.558;7.258;2022-08-19T06:11:55;20.00;99.90
23137;DHT22;11737;50.558;7.258;2022-08-19T06:14:43;20.10;99.90
23137;DHT22;11737;50.558;7.258;2022-08-19T06:17:11;20.20;99.90
23137;DHT22;11737;50.558;7.258;2022-08-19T06:19:39;20.40;99.90
23137;DHT22;11737;50.558;7.258;2022-08-19T06:22:08;20.50;99.90
23137;DHT22;11737;50.558;7.258;2022-08-19T06:24:37;20.50;99.90
23137;DHT22;11737;50.558;7.258;2022-08-19T06:27:05;20.60;99.90
23137;DHT22;11737;50.558;7.258;2022-08-19T06:29:32;20.70;99.90
23137;DHT22;11737;50.558;7.258;2022-08-19T06:32:02;20.80;99.90
23137;DHT22;11737;50.558;7.258;2022-08-19T06:34:32;20.90;99.90
23137;DHT22;11737;50.558;7.258;2022-08-19T06:37:02;20.90;99.90
23137;DHT22;11737;50.558;7.258;2022-08-19T06:39:32;20.90;99.90
23137;DHT22;11737;50.558;7.258;2022-08-19T06:42:02;21.00;99.90
23137;DHT22;11737;50.558;7.258;2022-08-19T06:44:37;21.00;99.90
23137;DHT22;11737;50.558;7.258;2022-08-19T06:47:07;21.20;99.90
23137;DHT22;11737;50.558;7.258;2022-08-19T06:49:36;21.20;99.90
23137;DHT22;11737;50.558;7.258;2022-08-19T06:52:05;21.20;99.90
23137;DHT22;11737;50.558;7.258;2022-08-19T06:54:33;21.30;99.90
23137;DHT22;11737;50.558;7.258;2022-08-19T06:57:03;21.40;99.90
23137;DHT22;11737;50.558;7.258;2022-08-19T06:59:32;21.50;99.90
23137;DHT22;11737;50.558;7.258;2022-08-19T07:02:03;21.60;99.90
23137;DHT22;11737;50.558;7.258;2022-08-19T07:04:33;21.70;99.90
23137;DHT22;11737;50.558;7.258;2022-08-19T07:07:10;21.90;99.90
23137;DHT22;11737;50.558;7.258;2022-08-19T07:09:41;22.00;99.90
23137;DHT22;11737;50.558;7.258;2022-08-19T07:12:11;22.20;99.90
23137;DHT22;11737;50.558;7.258;2022-08-19T07:14:42;22.30;99.90
23137;DHT22;11737;50.558;7.258;2022-08-19T07:17:11;22.50;99.90
23137;DHT22;11737;50.558;7.258;2022-08-19T07:19:39;22.60;99.90
23137;DHT22;11737;50.558;7.258;2022-08-19T07:22:09;22.90;99.90
23137;DHT22;11737;50.558;7.258;2022-08-19T07:24:37;23.10;99.90
23137;DHT22;11737;50.558;7.258;2022-08-19T07:27:06;23.40;99.90
23137;DHT22;11737;50.558;7.258;2022-08-19T07:29:36;23.50;99.90
23137;DHT22;11737;50.558;7.258;2022-08-19T07:32:05;23.70;99.90
23137;DHT22;11737;50.558;7.258;2022-08-19T07:34:33;23.90;99.90
23137;DHT22;11737;50.558;7.258;2022-08-19T07:37:06;24.10;99.90
23137;DHT22;11737;50.558;7.258;2022-08-19T07:39:35;24.30;99.70
23137;DHT22;11737;50.558;7.258;2022-08-19T07:42:07;24.50;99.30
23137;DHT22;11737;50.558;7.258;2022-08-19T07:44:34;24.70;99.00
23137;DHT22;11737;50.558;7.258;2022-08-19T07:47:03;24.80;98.40
23137;DHT22;11737;50.558;7.258;2022-08-19T07:49:31;25.00;98.40
23137;DHT22;11737;50.558;7.258;2022-08-19T07:52:03;25.00;97.60
23137;DHT22;11737;50.558;7.258;2022-08-19T07:54:32;25.10;97.70
23137;DHT22;11737;50.558;7.258;2022-08-19T07:57:02;25.20;97.20
23137;DHT22;11737;50.558;7.258;2022-08-19T07:59:30;25.30;97.00
23137;DHT22;11737;50.558;7.258;2022-08-19T08:01:58;25.40;96.80
23137;DHT22;11737;50.558;7.258;2022-08-19T08:04:28;25.50;96.40
23137;DHT22;11737;50.558;7.258;2022-08-19T08:07:13;25.40;96.30
23137;DHT22;11737;50.558;7.258;2022-08-19T08:10:00;25.60;96.10
23137;DHT22;11737;50.558;7.258;2022-08-19T08:12:32;25.50;95.90
23137;DHT22;11737;50.558;7.258;2022-08-19T08:15:02;25.70;96.10
23137;DHT22;11737;50.558;7.258;2022-08-19T08:17:30;25.70;95.70
23137;DHT22;11737;50.558;7.258;2022-08-19T08:19:58;25.80;95.20
23137;DHT22;11737;50.558;7.258;2022-08-19T08:22:26;25.90;95.30
23137;DHT22;11737;50.558;7.258;2022-08-19T08:25:15;25.90;95.00
23137;DHT22;11737;50.558;7.258;2022-08-19T08:27:44;26.00;94.80
23137;DHT22;11737;50.558;7.258;2022-08-19T08:30:19;26.00;94.20
23137;DHT22;11737;50.558;7.258;2022-08-19T08:32:43;26.10;94.20
23137;DHT22;11737;50.558;7.258;2022-08-19T08:35:14;26.10;93.80
23137;DHT22;11737;50.558;7.258;2022-08-19T08:37:43;26.10;93.70
23137;DHT22;11737;50.558;7.258;2022-08-19T08:40:21;26.00;93.30
23137;DHT22;11737;50.558;7.258;2022-08-19T08:43:06;26.00;93.80
23137;DHT22;11737;50.558;7.258;2022-08-19T08:45:35;26.10;92.70
23137;DHT22;11737;50.558;7.258;2022-08-19T08:48:10;26.10;93.00
23137;DHT22;11737;50.558;7.258;2022-08-19T08:50:38;26.20;92.60
23137;DHT22;11737;50.558;7.258;2022-08-19T08:53:06;26.20;92.60
23137;DHT22;11737;50.558;7.258;2022-08-19T08:55:35;26.20;92.60
23137;DHT22;11737;50.558;7.258;2022-08-19T08:58:06;26.20;92.60
23137;DHT22;11737;50.558;7.258;2022-08-19T09:00:39;26.30;92.40
23137;DHT22;11737;50.558;7.258;2022-08-19T09:03:19;26.30;92.50
23137;DHT22;11737;50.558;7.258;2022-08-19T09:06:07;26.50;92.20
23137;DHT22;11737;50.558;7.258;2022-08-19T09:09:17;26.50;91.80
23137;DHT22;11737;50.558;7.258;2022-08-19T09:11:55;26.60;91.90
23137;DHT22;11737;50.558;7.258;2022-08-19T09:17:09;26.80;91.60
23137;DHT22;11737;50.558;7.258;2022-08-19T09:19:54;27.00;91.60
23137;DHT22;11737;50.558;7.258;2022-08-19T09:22:22;27.00;90.40
23137;DHT22;11737;50.558;7.258;2022-08-19T09:24:51;27.20;90.70
23137;DHT22;11737;50.558;7.258;2022-08-19T09:27:20;27.40;90.90
23137;DHT22;11737;50.558;7.258;2022-08-19T09:29:51;27.50;90.30
23137;DHT22;11737;50.558;7.258;2022-08-19T09:32:22;27.70;90.30
23137;DHT22;11737;50.558;7.258;2022-08-19T09:34:50;27.80;89.90
23137;DHT22;11737;50.558;7.258;2022-08-19T09:37:20;27.80;89.50
23137;DHT22;11737;50.558;7.258;2022-08-19T09:39:48;27.80;89.40
23137;DHT22;11737;50.558;7.258;2022-08-19T09:42:16;27.80;89.30
23137;DHT22;11737;50.558;7.258;2022-08-19T09:44:45;27.80;89.00
23137;DHT22;11737;50.558;7.258;2022-08-19T09:47:13;27.90;88.60
23137;DHT22;11737;50.558;7.258;2022-08-19T09:49:42;27.90;87.60
23137;DHT22;11737;50.558;7.258;2022-08-19T09:52:10;27.90;86.80
23137;DHT22;11737;50.558;7.258;2022-08-19T09:54:38;27.80;86.60
23137;DHT22;11737;50.558;7.258;2022-08-19T09:57:06;27.70;86.90
23137;DHT22;11737;50.558;7.258;2022-08-19T09:59:34;27.80;87.30
23137;DHT22;11737;50.558;7.258;2022-08-19T10:02:02;27.90;87.30
23137;DHT22;11737;50.558;7.258;2022-08-19T10:04:30;28.00;87.60
23137;DHT22;11737;50.558;7.258;2022-08-19T10:07:15;28.10;86.60
23137;DHT22;11737;50.558;7.258;2022-08-19T10:09:43;28.30;86.40
23137;DHT22;11737;50.558;7.258;2022-08-19T10:12:11;28.50;85.60
23137;DHT22;11737;50.558;7.258;2022-08-19T10:14:39;28.50;84.30
23137;DHT22;11737;50.558;7.258;2022-08-19T10:17:06;28.50;83.40
23137;DHT22;11737;50.558;7.258;2022-08-19T10:19:34;28.60;84.90
23137;DHT22;11737;50.558;7.258;2022-08-19T10:22:06;28.70;84.30
23137;DHT22;11737;50.558;7.258;2022-08-19T10:24:34;28.90;84.20
23137;DHT22;11737;50.558;7.258;2022-08-19T10:27:03;28.90;82.30
23137;DHT22;11737;50.558;7.258;2022-08-19T10:29:33;28.70;81.40
23137;DHT22;11737;50.558;7.258;2022-08-19T10:32:03;28.50;81.60
23137;DHT22;11737;50.558;7.258;2022-08-19T10:34:32;28.30;82.30
23137;DHT22;11737;50.558;7.258;2022-08-19T10:37:00;28.40;83.50
23137;DHT22;11737;50.558;7.258;2022-08-19T10:39:29;28.60;83.00
23137;DHT22;11737;50.558;7.258;2022-08-19T10:41:58;28.70;82.00
23137;DHT22;11737;50.558;7.258;2022-08-19T10:44:26;28.60;81.70
23137;DHT22;11737;50.558;7.258;2022-08-19T10:46:55;28.40;81.00
23137;DHT22;11737;50.558;7.258;2022-08-19T10:49:23;28.30;82.20
23137;DHT22;11737;50.558;7.258;2022-08-19T10:51:50;28.40;81.30
23137;DHT22;11737;50.558;7.258;2022-08-19T10:54:35;28.70;82.50
23137;DHT22;11737;50.558;7.258;2022-08-19T10:57:21;28.80;78.80
23137;DHT22;11737;50.558;7.258;2022-08-19T10:59:50;28.70;80.00
23137;DHT22;11737;50.558;7.258;2022-08-19T11:02:18;28.80;77.60
23137;DHT22;11737;50.558;7.258;2022-08-19T11:04:45;28.80;78.90
23137;DHT22;11737;50.558;7.258;2022-08-19T11:07:14;28.90;79.40
23137;DHT22;11737;50.558;7.258;2022-08-19T11:09:42;29.00;78.80
23137;DHT22;11737;50.558;7.258;2022-08-19T11:12:10;29.10;77.70
23137;DHT22;11737;50.558;7.258;2022-08-19T11:14:39;29.20;77.80
23137;DHT22;11737;50.558;7.258;2022-08-19T11:17:06;29.20;76.40
23137;DHT22;11737;50.558;7.258;2022-08-19T11:19:35;28.90;77.20
23137;DHT22;11737;50.558;7.258;2022-08-19T11:22:03;28.60;77.60
23137;DHT22;11737;50.558;7.258;2022-08-19T11:24:31;28.60;77.50
23137;DHT22;11737;50.558;7.258;2022-08-19T11:27:03;28.70;76.90
23137;DHT22;11737;50.558;7.258;2022-08-19T11:29:31;28.80;77.10
23137;DHT22;11737;50.558;7.258;2022-08-19T11:32:02;28.90;76.80
23137;DHT22;11737;50.558;7.258;2022-08-19T11:34:30;29.00;76.20
23137;DHT22;11737;50.558;7.258;2022-08-19T11:36:57;29.00;75.50
23137;DHT22;11737;50.558;7.258;2022-08-19T11:39:29;29.00;74.20
23137;DHT22;11737;50.558;7.258;2022-08-19T11:41:58;29.10;75.20
23137;DHT22;11737;50.558;7.258;2022-08-19T11:44:27;29.30;75.40
23137;DHT22;11737;50.558;7.258;2022-08-19T11:46:57;29.50;74.00
23137;DHT22;11737;50.558;7.258;2022-08-19T11:49:26;29.60;72.60
23137;DHT22;11737;50.558;7.258;2022-08-19T11:51:53;29.50;72.10
23137;DHT22;11737;50.558;7.258;2022-08-19T11:54:26;29.40;72.60
23137;DHT22;11737;50.558;7.258;2022-08-19T11:56:54;29.30;73.40
23137;DHT22;11737;50.558;7.258;2022-08-19T11:59:21;29.20;73.50
23137;DHT22;11737;50.558;7.258;2022-08-19T12:01:50;29.20;71.10
23137;DHT22;11737;50.558;7.258;2022-08-19T12:04:18;29.20;72.70
23137;DHT22;11737;50.558;7.258;2022-08-19T12:06:45;29.20;72.10
23137;DHT22;11737;50.558;7.258;2022-08-19T12:09:13;29.20;72.60
23137;DHT22;11737;50.558;7.258;2022-08-19T12:11:42;29.20;71.20
23137;DHT22;11737;50.558;7.258;2022-08-19T12:14:11;29.30;71.70
23137;DHT22;11737;50.558;7.258;2022-08-19T12:16:40;29.20;68.70
23137;DHT22;11737;50.558;7.258;2022-08-19T12:19:08;29.20;68.60
23137;DHT22;11737;50.558;7.258;2022-08-19T12:21:35;29.30;70.50
23137;DHT22;11737;50.558;7.258;2022-08-19T12:24:05;29.40;69.40
23137;DHT22;11737;50.558;7.258;2022-08-19T12:26:34;29.40;70.20
23137;DHT22;11737;50.558;7.258;2022-08-19T12:29:03;29.30;70.40
23137;DHT22;11737;50.558;7.258;2022-08-19T12:31:30;29.00;67.10
23137;DHT22;11737;50.558;7.258;2022-08-19T12:33:58;28.80;71.40
23137;DHT22;11737;50.558;7.258;2022-08-19T12:36:26;28.70;69.20
23137;DHT22;11737;50.558;7.258;2022-08-19T12:38:54;28.60;71.70
23137;DHT22;11737;50.558;7.258;2022-08-19T12:41:21;28.70;70.50
23137;DHT22;11737;50.558;7.258;2022-08-19T12:43:49;28.80;70.00
23137;DHT22;11737;50.558;7.258;2022-08-19T12:46:18;28.80;68.90
23137;DHT22;11737;50.558;7.258;2022-08-19T12:48:47;28.90;69.70
23137;DHT22;11737;50.558;7.258;2022-08-19T12:51:18;29.10;68.80
23137;DHT22;11737;50.558;7.258;2022-08-19T12:53:47;29.20;69.00
23137;DHT22;11737;50.558;7.258;2022-08-19T12:56:16;29.30;68.50
23137;DHT22;11737;50.558;7.258;2022-08-19T12:58:46;29.30;68.50
23137;DHT22;11737;50.558;7.258;2022-08-19T13:01:15;29.50;68.10
23137;DHT22;11737;50.558;7.258;2022-08-19T13:03:45;29.70;67.80
23137;DHT22;11737;50.558;7.258;2022-08-19T13:06:15;29.80;66.50
23137;DHT22;11737;50.558;7.258;2022-08-19T13:08:44;29.70;66.70
23137;DHT22;11737;50.558;7.258;2022-08-19T13:11:16;29.50;67.70
23137;DHT22;11737;50.558;7.258;2022-08-19T13:13:46;29.40;68.10
23137;DHT22;11737;50.558;7.258;2022-08-19T13:16:15;29.30;66.90
23137;DHT22;11737;50.558;7.258;2022-08-19T13:18:45;29.30;68.00
23137;DHT22;11737;50.558;7.258;2022-08-19T13:21:17;29.30;67.60
23137;DHT22;11737;50.558;7.258;2022-08-19T13:23:46;29.40;66.80
23137;DHT22;11737;50.558;7.258;2022-08-19T13:26:15;29.30;66.20
23137;DHT22;11737;50.558;7.258;2022-08-19T13:28:45;29.40;67.00
23137;DHT22;11737;50.558;7.258;2022-08-19T13:31:33;29.40;67.10
23137;DHT22;11737;50.558;7.258;2022-08-19T13:34:29;29.30;65.90
23137;DHT22;11737;50.558;7.258;2022-08-19T13:36:57;29.20;66.00
23137;DHT22;11737;50.558;7.258;2022-08-19T13:39:25;29.10;66.10
23137;DHT22;11737;50.558;7.258;2022-08-19T13:41:54;29.10;67.00
23137;DHT22;11737;50.558;7.258;2022-08-19T13:44:21;29.20;67.50
23137;DHT22;11737;50.558;7.258;2022-08-19T13:46:49;29.30;67.80
23137;DHT22;11737;50.558;7.258;2022-08-19T13:49:19;29.60;67.90
23137;DHT22;11737;50.558;7.258;2022-08-19T13:51:47;29.80;67.40
23137;DHT22;11737;50.558;7.258;2022-08-19T13:54:14;30.10;66.10
23137;DHT22;11737;50.558;7.258;2022-08-19T13:56:44;30.10;65.80
23137;DHT22;11737;50.558;7.258;2022-08-19T13:59:12;29.90;65.80
23137;DHT22;11737;50.558;7.258;2022-08-19T14:01:40;29.90;65.30
23137;DHT22;11737;50.558;7.258;2022-08-19T14:04:10;30.00;66.10
23137;DHT22;11737;50.558;7.258;2022-08-19T14:06:48;30.10;63.50
23137;DHT22;11737;50.558;7.258;2022-08-19T14:09:15;30.20;64.60
23137;DHT22;11737;50.558;7.258;2022-08-19T14:11:44;30.30;63.30
23137;DHT22;11737;50.558;7.258;2022-08-19T14:14:13;30.40;62.80
23137;DHT22;11737;50.558;7.258;2022-08-19T14:16:40;30.50;63.20
23137;DHT22;11737;50.558;7.258;2022-08-19T14:19:09;30.60;63.50
23137;DHT22;11737;50.558;7.258;2022-08-19T14:21:36;30.70;62.20
23137;DHT22;11737;50.558;7.258;2022-08-19T14:24:04;30.70;62.00
23137;DHT22;11737;50.558;7.258;2022-08-19T14:26:31;30.70;59.80
23137;DHT22;11737;50.558;7.258;2022-08-19T14:28:59;30.80;60.00
23137;DHT22;11737;50.558;7.258;2022-08-19T14:31:27;30.90;60.00
23137;DHT22;11737;50.558;7.258;2022-08-19T14:33:55;31.00;57.60
23137;DHT22;11737;50.558;7.258;2022-08-19T14:36:22;31.10;59.10
23137;DHT22;11737;50.558;7.258;2022-08-19T14:38:50;31.30;59.40
23137;DHT22;11737;50.558;7.258;2022-08-19T14:41:20;31.60;59.30
23137;DHT22;11737;50.558;7.258;2022-08-19T14:43:50;31.90;57.40
23137;DHT22;11737;50.558;7.258;2022-08-19T14:46:21;32.20;55.30
23137;DHT22;11737;50.558;7.258;2022-08-19T14:48:49;32.30;56.00
23137;DHT22;11737;50.558;7.258;2022-08-19T14:51:17;32.50;54.10
23137;DHT22;11737;50.558;7.258;2022-08-19T14:53:45;32.70;54.80
23137;DHT22;11737;50.558;7.258;2022-08-19T14:56:18;33.00;54.90
23137;DHT22;11737;50.558;7.258;2022-08-19T14:58:45;33.20;53.60
23137;DHT22;11737;50.558;7.258;2022-08-19T15:01:13;33.50;53.60
23137;DHT22;11737;50.558;7.258;2022-08-19T15:03:41;33.80;53.20
23137;DHT22;11737;50.558;7.258;2022-08-19T15:06:09;34.00;52.30
23137;DHT22;11737;50.558;7.258;2022-08-19T15:08:38;34.10;50.80
23137;DHT22;11737;50.558;7.258;2022-08-19T15:11:12;34.50;51.90
23137;DHT22;11737;50.558;7.258;2022-08-19T15:13:41;34.80;51.80
23137;DHT22;11737;50.558;7.258;2022-08-19T15:16:09;34.90;50.90
23137;DHT22;11737;50.558;7.258;2022-08-19T15:18:37;35.00;50.60
23137;DHT22;11737;50.558;7.258;2022-08-19T15:21:04;35.30;50.90
23137;DHT22;11737;50.558;7.258;2022-08-19T15:23:34;35.30;51.40
23137;DHT22;11737;50.558;7.258;2022-08-19T15:26:02;35.20;50.10
23137;DHT22;11737;50.558;7.258;2022-08-19T15:28:32;35.10;48.50
23137;DHT22;11737;50.558;7.258;2022-08-19T15:31:00;35.00;50.10
23137;DHT22;11737;50.558;7.258;2022-08-19T15:33:30;34.90;50.70
23137;DHT22;11737;50.558;7.258;2022-08-19T15:35:57;35.10;50.20
23137;DHT22;11737;50.558;7.258;2022-08-19T15:38:27;35.30;50.00
23137;DHT22;11737;50.558;7.258;2022-08-19T15:40:54;35.70;49.70
23137;DHT22;11737;50.558;7.258;2022-08-19T15:43:33;36.10;48.50
23137;DHT22;11737;50.558;7.258;2022-08-19T15:46:06;36.20;48.60
23137;DHT22;11737;50.558;7.258;2022-08-19T15:48:41;36.50;48.30
23137;DHT22;11737;50.558;7.258;2022-08-19T15:51:11;36.70;48.50
23137;DHT22;11737;50.558;7.258;2022-08-19T15:53:40;37.20;47.90